| time (UTC) | temp C | wind direction | speed KPH | gust KPH | rain 1hr cm | rain 24hr cm | rain mn cm | humidity % | barometer mb |
| 20260903071105 | 13 | 302 | 9.7 | 16.1 | 0.00 | 0.00 | 0.00 | 73 | |
| 20260903064104 | 13 | 305 | 8.0 | 12.9 | 0.00 | 0.00 | 0.00 | 75 | |
| 20260903061105 | 13 | 307 | 8.0 | 12.9 | 0.00 | 0.00 | 0.00 | 76 | |
| 20260903054104 | 13 | 310 | 8.0 | 12.9 | 0.00 | 0.00 | 0.00 | 76 | |
| 20260903051105 | 13 | 309 | 9.7 | 12.9 | 0.00 | 0.00 | 0.00 | 75 | |
| 20260903044104 | 13 | 308 | 8.0 | 14.5 | 0.00 | 0.00 | 0.00 | 75 | |
| 20260903041104 | 13 | 308 | 9.7 | 14.5 | 0.00 | 0.00 | 0.00 | 75 | |
| 20260903031105 | 13 | 307 | 14.5 | 24.1 | 0.00 | 0.00 | 0.00 | 77 | |
| 20260903021104 | 14 | 305 | 11.3 | 24.1 | 0.00 | 0.00 | 0.00 | 69 | |
| 20260903014104 | 15 | 303 | 8.0 | 16.1 | 0.00 | 0.00 | 0.00 | 64 | |
| 20260903011105 | 15 | 294 | 4.8 | 17.7 | 0.00 | 0.00 | 0.00 | 61 | |
| 20260903004105 | 15 | 286 | 6.4 | 12.9 | 0.00 | 0.00 | 0.00 | 59 | |
| 20260903001504 | 15 | 296 | 6.4 | 17.7 | 0.00 | 0.00 | 0.00 | 60 | |
| 20260902234105 | 15 | 299 | 8.0 | 19.3 | 0.00 | 0.00 | 0.00 | 59 | |
| 20260902224105 | 15 | 299 | 9.7 | 20.9 | 0.00 | 0.00 | 0.00 | 66 | |
| 20260902221105 | 15 | 278 | 4.8 | 17.7 | 0.00 | 0.00 | 0.00 | 73 | |
| 20260902214105 | 15 | 185 | 1.6 | 6.4 | 0.00 | 0.00 | 0.00 | 72 | |
| 20260902211105 | 15 | 247 | 1.6 | 3.2 | 0.00 | 0.00 | 0.00 | 70 | |
| 20260902204106 | 15 | 302 | 1.6 | 3.2 | 0.00 | 0.00 | 0.00 | 69 | |
| 20260902201105 | 15 | 149 | 1.6 | 4.8 | 0.00 | 0.00 | 0.00 | 68 | |
| 20260902194105 | 15 | 214 | 1.6 | 3.2 | 0.00 | 0.00 | 0.00 | 67 | |
| 20260902191105 | 15 | 304 | 1.6 | 3.2 | 0.00 | 0.00 | 0.00 | 68 | |
| 20260902184105 | 15 | 312 | 1.6 | 3.2 | 0.00 | 0.00 | 0.00 | 68 | |
| 20260902181105 | 15 | 339 | 1.6 | 8.0 | 0.00 | 0.00 | 0.00 | 69 | |
| 20260902174105 | 15 | 344 | 1.6 | 4.8 | 0.00 | 0.00 | 0.00 | 70 | |
| 20260902171105 | 16 | 338 | 1.6 | 4.8 | 0.00 | 0.00 | 0.00 | 70 | |
| 20260902164105 | 17 | 308 | 4.8 | 8.0 | 0.00 | 0.00 | 0.00 | 67 | |
| 20260902161105 | 17 | 317 | 3.2 | 9.7 | 0.00 | 0.00 | 0.00 | 66 | |
| 20260902154105 | 18 | 322 | 3.2 | 11.3 | 0.00 | 0.00 | 0.00 | 66 | |
| 20260902151105 | 17 | 307 | 3.2 | 9.7 | 0.00 | 0.00 | 0.00 | 66 | |
| 20260902144105 | 18 | 310 | 4.8 | 14.5 | 0.00 | 0.00 | 0.00 | 66 | |
| 20260902141105 | 18 | 322 | 3.2 | 17.7 | 0.00 | 0.00 | 0.00 | 66 | |
| 20260902134105 | 17 | 331 | 3.2 | 11.3 | 0.00 | 0.00 | 0.00 | 66 | |
| 20260902131105 | 18 | 322 | 3.2 | 8.0 | 0.00 | 0.00 | 0.00 | 62 | |
| 20260902124104 | 17 | 324 | 3.2 | 8.0 | 0.00 | 0.00 | 0.00 | 64 | |
| 20260902121105 | 17 | 323 | 3.2 | 8.0 | 0.00 | 0.00 | 0.00 | 66 | |
| 20260902114105 | 17 | 324 | 3.2 | 6.4 | 0.00 | 0.00 | 0.00 | 68 | |
| 20260902111105 | 17 | 319 | 3.2 | 8.0 | 0.00 | 0.00 | 0.00 | 68 | |
| 20260902104105 | 17 | 304 | 3.2 | 6.4 | 0.00 | 0.00 | 0.00 | 69 | |
| 20260902101105 | 17 | 311 | 1.6 | 6.4 | 0.00 | 0.00 | 0.00 | 72 | |
| 20260902094105 | 17 | 296 | 1.6 | 4.8 | 0.00 | 0.00 | 0.00 | 69 | |
| 20260902091104 | 16 | 306 | 3.2 | 6.4 | 0.00 | 0.00 | 0.00 | 70 | |
| 20260902084104 | 16 | 297 | 1.6 | 4.8 | 0.00 | 0.00 | 0.00 | 68 | |
| 20260902081104 | 16 | 260 | 1.6 | 6.4 | 0.00 | 0.00 | 0.00 | 66 | |
| 20260902074105 | 16 | 160 | 3.2 | 9.7 | 0.00 | 0.00 | 0.00 | 68 |